sensor_id;sensor_type;location;lat;lon;timestamp;temperature;humidity
23532;DHT22;11943;52.270;20.978;2023-06-14T00:00:18;12.80;99.90
23532;DHT22;11943;52.270;20.978;2023-06-14T00:02:44;12.80;99.90
23532;DHT22;11943;52.270;20.978;2023-06-14T00:05:09;12.90;99.90
23532;DHT22;11943;52.270;20.978;2023-06-14T00:07:38;12.80;99.90
23532;DHT22;11943;52.270;20.978;2023-06-14T00:10:08;12.80;99.90
23532;DHT22;11943;52.270;20.978;2023-06-14T00:12:34;12.80;99.90
23532;DHT22;11943;52.270;20.978;2023-06-14T00:15:00;12.80;99.90
23532;DHT22;11943;52.270;20.978;2023-06-14T00:17:27;12.80;99.90
23532;DHT22;11943;52.270;20.978;2023-06-14T00:19:57;12.80;99.90
23532;DHT22;11943;52.270;20.978;2023-06-14T00:22:24;12.80;99.90
23532;DHT22;11943;52.270;20.978;2023-06-14T00:24:54;12.80;99.90
23532;DHT22;11943;52.270;20.978;2023-06-14T00:27:20;12.80;99.90
23532;DHT22;11943;52.270;20.978;2023-06-14T00:29:45;12.80;99.90
23532;DHT22;11943;52.270;20.978;2023-06-14T00:32:11;12.80;99.90
23532;DHT22;11943;52.270;20.978;2023-06-14T00:34:37;12.80;99.90
23532;DHT22;11943;52.270;20.978;2023-06-14T00:37:02;12.80;99.90
23532;DHT22;11943;52.270;20.978;2023-06-14T00:39:28;12.70;99.90
23532;DHT22;11943;52.270;20.978;2023-06-14T00:41:54;12.80;99.90
23532;DHT22;11943;52.270;20.978;2023-06-14T00:44:19;12.80;99.90
23532;DHT22;11943;52.270;20.978;2023-06-14T00:46:46;12.80;99.90
23532;DHT22;11943;52.270;20.978;2023-06-14T00:49:14;12.90;99.90
23532;DHT22;11943;52.270;20.978;2023-06-14T00:51:41;12.90;99.90
23532;DHT22;11943;52.270;20.978;2023-06-14T00:54:07;12.80;99.90
23532;DHT22;11943;52.270;20.978;2023-06-14T00:56:35;12.80;99.90
23532;DHT22;11943;52.270;20.978;2023-06-14T00:59:02;12.80;99.90
23532;DHT22;11943;52.270;20.978;2023-06-14T01:01:29;12.80;99.90
23532;DHT22;11943;52.270;20.978;2023-06-14T01:03:58;12.80;99.90
23532;DHT22;11943;52.270;20.978;2023-06-14T01:06:33;12.80;99.90
23532;DHT22;11943;52.270;20.978;2023-06-14T01:09:21;12.80;99.90
23532;DHT22;11943;52.270;20.978;2023-06-14T01:12:00;12.80;99.90
23532;DHT22;11943;52.270;20.978;2023-06-14T01:14:27;12.80;99.90
23532;DHT22;11943;52.270;20.978;2023-06-14T01:16:55;12.90;99.90
23532;DHT22;11943;52.270;20.978;2023-06-14T01:19:23;12.90;99.90
23532;DHT22;11943;52.270;20.978;2023-06-14T01:21:51;12.90;99.90
23532;DHT22;11943;52.270;20.978;2023-06-14T01:24:18;12.90;99.90
23532;DHT22;11943;52.270;20.978;2023-06-14T01:26:54;12.90;99.90
23532;DHT22;11943;52.270;20.978;2023-06-14T01:29:23;12.90;99.90
23532;DHT22;11943;52.270;20.978;2023-06-14T01:31:49;12.90;99.90
23532;DHT22;11943;52.270;20.978;2023-06-14T01:34:15;12.90;99.90
23532;DHT22;11943;52.270;20.978;2023-06-14T01:36:43;12.90;99.90
23532;DHT22;11943;52.270;20.978;2023-06-14T01:39:14;12.90;99.90
23532;DHT22;11943;52.270;20.978;2023-06-14T01:41:41;12.90;99.90
23532;DHT22;11943;52.270;20.978;2023-06-14T01:44:08;12.80;99.90
23532;DHT22;11943;52.270;20.978;2023-06-14T01:46:35;12.90;99.90
23532;DHT22;11943;52.270;20.978;2023-06-14T01:49:01;12.90;99.90
23532;DHT22;11943;52.270;20.978;2023-06-14T01:51:27;12.90;99.90
23532;DHT22;11943;52.270;20.978;2023-06-14T01:53:53;12.90;99.90
23532;DHT22;11943;52.270;20.978;2023-06-14T01:56:18;12.90;99.90
23532;DHT22;11943;52.270;20.978;2023-06-14T01:58:45;12.90;99.90
23532;DHT22;11943;52.270;20.978;2023-06-14T02:01:11;13.00;99.90
23532;DHT22;11943;52.270;20.978;2023-06-14T02:03:38;13.00;99.90
23532;DHT22;11943;52.270;20.978;2023-06-14T02:06:04;13.00;99.90
23532;DHT22;11943;52.270;20.978;2023-06-14T02:08:29;13.00;99.90
23532;DHT22;11943;52.270;20.978;2023-06-14T02:10:55;13.00;99.90
23532;DHT22;11943;52.270;20.978;2023-06-14T02:13:21;13.00;99.90
23532;DHT22;11943;52.270;20.978;2023-06-14T02:15:47;13.00;99.90
23532;DHT22;11943;52.270;20.978;2023-06-14T02:18:16;13.00;99.90
23532;DHT22;11943;52.270;20.978;2023-06-14T02:20:42;13.00;99.90
23532;DHT22;11943;52.270;20.978;2023-06-14T02:23:07;13.10;99.90
23532;DHT22;11943;52.270;20.978;2023-06-14T02:25:33;13.00;99.90
23532;DHT22;11943;52.270;20.978;2023-06-14T02:27:58;13.00;99.90
23532;DHT22;11943;52.270;20.978;2023-06-14T02:30:24;13.00;99.90
23532;DHT22;11943;52.270;20.978;2023-06-14T02:32:50;13.10;99.90
23532;DHT22;11943;52.270;20.978;2023-06-14T02:35:16;13.10;99.90
23532;DHT22;11943;52.270;20.978;2023-06-14T02:37:42;13.10;99.90
23532;DHT22;11943;52.270;20.978;2023-06-14T02:40:08;13.10;99.90
23532;DHT22;11943;52.270;20.978;2023-06-14T02:42:34;13.10;99.90
23532;DHT22;11943;52.270;20.978;2023-06-14T02:45:00;13.20;99.90
23532;DHT22;11943;52.270;20.978;2023-06-14T02:47:27;13.20;99.90
23532;DHT22;11943;52.270;20.978;2023-06-14T02:49:53;13.20;99.90
23532;DHT22;11943;52.270;20.978;2023-06-14T02:52:19;13.30;99.90
23532;DHT22;11943;52.270;20.978;2023-06-14T02:54:46;13.20;99.90
23532;DHT22;11943;52.270;20.978;2023-06-14T02:57:12;13.20;99.90
23532;DHT22;11943;52.270;20.978;2023-06-14T02:59:38;13.20;99.90
23532;DHT22;11943;52.270;20.978;2023-06-14T03:02:04;13.30;99.90
23532;DHT22;11943;52.270;20.978;2023-06-14T03:04:30;13.30;99.90
23532;DHT22;11943;52.270;20.978;2023-06-14T03:07:00;13.30;99.90
23532;DHT22;11943;52.270;20.978;2023-06-14T03:09:28;13.30;99.90
23532;DHT22;11943;52.270;20.978;2023-06-14T03:11:54;13.30;99.90
23532;DHT22;11943;52.270;20.978;2023-06-14T03:14:19;13.30;99.90
23532;DHT22;11943;52.270;20.978;2023-06-14T03:16:46;13.30;99.90
23532;DHT22;11943;52.270;20.978;2023-06-14T03:19:12;13.30;99.90
23532;DHT22;11943;52.270;20.978;2023-06-14T03:21:38;13.40;99.90
23532;DHT22;11943;52.270;20.978;2023-06-14T03:24:04;13.40;99.90
23532;DHT22;11943;52.270;20.978;2023-06-14T03:26:30;13.40;99.90
23532;DHT22;11943;52.270;20.978;2023-06-14T03:28:56;13.30;99.90
23532;DHT22;11943;52.270;20.978;2023-06-14T03:31:22;13.30;99.90
23532;DHT22;11943;52.270;20.978;2023-06-14T03:33:49;13.30;99.90
23532;DHT22;11943;52.270;20.978;2023-06-14T03:36:14;13.40;99.90
23532;DHT22;11943;52.270;20.978;2023-06-14T03:38:40;13.30;99.90
23532;DHT22;11943;52.270;20.978;2023-06-14T03:41:05;13.30;99.90
23532;DHT22;11943;52.270;20.978;2023-06-14T03:43:31;13.30;99.90
23532;DHT22;11943;52.270;20.978;2023-06-14T03:45:57;13.30;99.90
23532;DHT22;11943;52.270;20.978;2023-06-14T03:48:22;13.40;99.90
23532;DHT22;11943;52.270;20.978;2023-06-14T03:50:48;13.40;99.90
23532;DHT22;11943;52.270;20.978;2023-06-14T03:53:14;13.40;99.90
23532;DHT22;11943;52.270;20.978;2023-06-14T03:55:40;13.50;99.90
23532;DHT22;11943;52.270;20.978;2023-06-14T03:58:06;13.50;99.90
23532;DHT22;11943;52.270;20.978;2023-06-14T04:00:32;13.60;99.90
23532;DHT22;11943;52.270;20.978;2023-06-14T04:02:58;13.60;99.90
23532;DHT22;11943;52.270;20.978;2023-06-14T04:05:24;13.50;99.90
23532;DHT22;11943;52.270;20.978;2023-06-14T04:07:51;13.60;99.90
23532;DHT22;11943;52.270;20.978;2023-06-14T04:10:17;13.60;99.90
23532;DHT22;11943;52.270;20.978;2023-06-14T04:12:43;13.60;99.90
23532;DHT22;11943;52.270;20.978;2023-06-14T04:15:09;13.60;99.90
23532;DHT22;11943;52.270;20.978;2023-06-14T04:17:36;13.70;99.90
23532;DHT22;11943;52.270;20.978;2023-06-14T04:20:02;13.80;99.90
23532;DHT22;11943;52.270;20.978;2023-06-14T04:22:33;13.80;99.90
23532;DHT22;11943;52.270;20.978;2023-06-14T04:24:59;13.80;99.90
23532;DHT22;11943;52.270;20.978;2023-06-14T04:27:26;13.90;99.90
23532;DHT22;11943;52.270;20.978;2023-06-14T04:29:52;13.90;99.90
23532;DHT22;11943;52.270;20.978;2023-06-14T04:32:26;13.90;99.90
23532;DHT22;11943;52.270;20.978;2023-06-14T04:34:53;13.90;99.90
23532;DHT22;11943;52.270;20.978;2023-06-14T04:37:22;13.90;99.90
23532;DHT22;11943;52.270;20.978;2023-06-14T04:39:48;13.90;99.90
23532;DHT22;11943;52.270;20.978;2023-06-14T04:42:15;14.00;99.90
23532;DHT22;11943;52.270;20.978;2023-06-14T04:44:42;13.90;99.90
23532;DHT22;11943;52.270;20.978;2023-06-14T04:47:09;14.00;99.90
23532;DHT22;11943;52.270;20.978;2023-06-14T04:49:35;13.90;99.90
23532;DHT22;11943;52.270;20.978;2023-06-14T04:52:00;14.00;99.90
23532;DHT22;11943;52.270;20.978;2023-06-14T04:54:27;14.00;99.90
23532;DHT22;11943;52.270;20.978;2023-06-14T04:56:53;14.10;99.90
23532;DHT22;11943;52.270;20.978;2023-06-14T04:59:20;14.20;99.90
23532;DHT22;11943;52.270;20.978;2023-06-14T05:01:48;14.30;99.90
23532;DHT22;11943;52.270;20.978;2023-06-14T05:04:15;14.30;99.90
23532;DHT22;11943;52.270;20.978;2023-06-14T05:06:42;14.20;99.90
23532;DHT22;11943;52.270;20.978;2023-06-14T05:09:13;14.20;99.90
23532;DHT22;11943;52.270;20.978;2023-06-14T05:11:40;14.20;99.90
23532;DHT22;11943;52.270;20.978;2023-06-14T05:14:07;14.20;99.90
23532;DHT22;11943;52.270;20.978;2023-06-14T05:16:33;14.20;99.90
23532;DHT22;11943;52.270;20.978;2023-06-14T05:18:59;14.20;99.90
23532;DHT22;11943;52.270;20.978;2023-06-14T05:21:25;14.20;99.90
23532;DHT22;11943;52.270;20.978;2023-06-14T05:23:50;14.30;99.90
23532;DHT22;11943;52.270;20.978;2023-06-14T05:26:16;14.30;99.90
23532;DHT22;11943;52.270;20.978;2023-06-14T05:28:42;14.30;99.90
23532;DHT22;11943;52.270;20.978;2023-06-14T05:31:08;14.30;99.90
23532;DHT22;11943;52.270;20.978;2023-06-14T05:33:33;14.40;99.90
23532;DHT22;11943;52.270;20.978;2023-06-14T05:35:59;14.40;99.90
23532;DHT22;11943;52.270;20.978;2023-06-14T05:38:24;14.50;99.90
23532;DHT22;11943;52.270;20.978;2023-06-14T05:40:51;14.50;99.90
23532;DHT22;11943;52.270;20.978;2023-06-14T05:43:16;14.50;99.90
23532;DHT22;11943;52.270;20.978;2023-06-14T05:45:42;14.60;99.90
23532;DHT22;11943;52.270;20.978;2023-06-14T05:48:07;14.70;99.90
23532;DHT22;11943;52.270;20.978;2023-06-14T05:50:33;14.70;99.90
23532;DHT22;11943;52.270;20.978;2023-06-14T05:52:59;14.70;99.90
23532;DHT22;11943;52.270;20.978;2023-06-14T05:55:25;14.70;99.90
23532;DHT22;11943;52.270;20.978;2023-06-14T05:57:50;14.80;99.90
23532;DHT22;11943;52.270;20.978;2023-06-14T06:00:17;14.90;99.90
23532;DHT22;11943;52.270;20.978;2023-06-14T06:02:43;15.00;99.90
23532;DHT22;11943;52.270;20.978;2023-06-14T06:05:10;15.00;99.90
23532;DHT22;11943;52.270;20.978;2023-06-14T06:07:36;15.00;99.90
23532;DHT22;11943;52.270;20.978;2023-06-14T06:10:04;15.00;99.90
23532;DHT22;11943;52.270;20.978;2023-06-14T06:12:30;15.10;99.90
23532;DHT22;11943;52.270;20.978;2023-06-14T06:14:56;15.10;99.90
23532;DHT22;11943;52.270;20.978;2023-06-14T06:17:22;15.20;99.90
23532;DHT22;11943;52.270;20.978;2023-06-14T06:19:48;15.20;99.90
23532;DHT22;11943;52.270;20.978;2023-06-14T06:22:13;15.20;99.90
23532;DHT22;11943;52.270;20.978;2023-06-14T06:24:39;15.20;99.90
23532;DHT22;11943;52.270;20.978;2023-06-14T06:27:05;15.20;99.90
23532;DHT22;11943;52.270;20.978;2023-06-14T06:29:33;15.20;99.90
23532;DHT22;11943;52.270;20.978;2023-06-14T06:31:59;15.30;99.90
23532;DHT22;11943;52.270;20.978;2023-06-14T06:34:24;15.20;99.90
23532;DHT22;11943;52.270;20.978;2023-06-14T06:36:51;15.20;99.90
23532;DHT22;11943;52.270;20.978;2023-06-14T06:39:17;15.30;99.90
23532;DHT22;11943;52.270;20.978;2023-06-14T06:41:42;15.20;99.90
23532;DHT22;11943;52.270;20.978;2023-06-14T06:44:08;15.20;99.90
23532;DHT22;11943;52.270;20.978;2023-06-14T06:46:36;15.20;99.90
23532;DHT22;11943;52.270;20.978;2023-06-14T06:49:05;15.40;99.90
23532;DHT22;11943;52.270;20.978;2023-06-14T06:51:31;15.50;99.90
23532;DHT22;11943;52.270;20.978;2023-06-14T06:53:56;15.60;99.90
23532;DHT22;11943;52.270;20.978;2023-06-14T06:56:22;15.70;99.90
23532;DHT22;11943;52.270;20.978;2023-06-14T06:58:50;15.60;99.90
23532;DHT22;11943;52.270;20.978;2023-06-14T07:01:19;15.70;99.90
23532;DHT22;11943;52.270;20.978;2023-06-14T07:03:45;15.70;99.90
23532;DHT22;11943;52.270;20.978;2023-06-14T07:06:11;15.70;99.90
23532;DHT22;11943;52.270;20.978;2023-06-14T07:08:37;15.60;99.90
23532;DHT22;11943;52.270;20.978;2023-06-14T07:11:06;15.60;99.90
23532;DHT22;11943;52.270;20.978;2023-06-14T07:13:32;15.50;99.90
23532;DHT22;11943;52.270;20.978;2023-06-14T07:15:59;15.50;99.90
23532;DHT22;11943;52.270;20.978;2023-06-14T07:18:26;15.50;99.90
23532;DHT22;11943;52.270;20.978;2023-06-14T07:20:52;15.60;99.90
23532;DHT22;11943;52.270;20.978;2023-06-14T07:23:19;15.70;99.90
23532;DHT22;11943;52.270;20.978;2023-06-14T07:25:45;15.80;99.90
23532;DHT22;11943;52.270;20.978;2023-06-14T07:28:11;16.00;99.90
23532;DHT22;11943;52.270;20.978;2023-06-14T07:30:37;16.10;99.90
23532;DHT22;11943;52.270;20.978;2023-06-14T07:33:02;16.30;99.90
23532;DHT22;11943;52.270;20.978;2023-06-14T07:35:28;16.40;99.90
23532;DHT22;11943;52.270;20.978;2023-06-14T07:37:54;16.50;99.90
23532;DHT22;11943;52.270;20.978;2023-06-14T07:40:19;16.60;99.90
23532;DHT22;11943;52.270;20.978;2023-06-14T07:42:45;16.70;99.90
23532;DHT22;11943;52.270;20.978;2023-06-14T07:45:13;16.80;99.90
23532;DHT22;11943;52.270;20.978;2023-06-14T07:47:39;17.00;99.90
23532;DHT22;11943;52.270;20.978;2023-06-14T07:50:05;17.00;99.90
23532;DHT22;11943;52.270;20.978;2023-06-14T07:52:31;17.20;99.90
23532;DHT22;11943;52.270;20.978;2023-06-14T07:54:56;17.10;99.90
23532;DHT22;11943;52.270;20.978;2023-06-14T07:57:22;17.20;99.90
23532;DHT22;11943;52.270;20.978;2023-06-14T07:59:48;17.30;99.90
23532;DHT22;11943;52.270;20.978;2023-06-14T08:02:14;17.40;99.90
23532;DHT22;11943;52.270;20.978;2023-06-14T08:04:39;17.40;99.90
23532;DHT22;11943;52.270;20.978;2023-06-14T08:07:06;17.50;99.90
23532;DHT22;11943;52.270;20.978;2023-06-14T08:09:32;17.40;99.90
23532;DHT22;11943;52.270;20.978;2023-06-14T08:11:58;17.50;99.90
23532;DHT22;11943;52.270;20.978;2023-06-14T08:14:23;17.50;99.90
23532;DHT22;11943;52.270;20.978;2023-06-14T08:16:49;17.60;99.90
23532;DHT22;11943;52.270;20.978;2023-06-14T08:19:15;17.70;99.90
23532;DHT22;11943;52.270;20.978;2023-06-14T08:21:42;17.70;99.90
23532;DHT22;11943;52.270;20.978;2023-06-14T08:24:10;17.60;99.90
23532;DHT22;11943;52.270;20.978;2023-06-14T08:26:38;17.80;99.90
23532;DHT22;11943;52.270;20.978;2023-06-14T08:29:03;17.80;99.90
23532;DHT22;11943;52.270;20.978;2023-06-14T08:31:29;17.60;99.90
23532;DHT22;11943;52.270;20.978;2023-06-14T08:33:57;17.50;99.90
23532;DHT22;11943;52.270;20.978;2023-06-14T08:36:22;17.50;99.90
23532;DHT22;11943;52.270;20.978;2023-06-14T08:38:48;17.60;99.90
23532;DHT22;11943;52.270;20.978;2023-06-14T08:41:20;17.60;99.90
23532;DHT22;11943;52.270;20.978;2023-06-14T08:43:46;17.70;99.90
23532;DHT22;11943;52.270;20.978;2023-06-14T08:46:12;17.80;99.90
23532;DHT22;11943;52.270;20.978;2023-06-14T08:48:44;17.80;99.90
23532;DHT22;11943;52.270;20.978;2023-06-14T08:51:10;17.80;99.90
23532;DHT22;11943;52.270;20.978;2023-06-14T08:53:37;17.80;99.90
23532;DHT22;11943;52.270;20.978;2023-06-14T08:56:08;18.10;99.90
23532;DHT22;11943;52.270;20.978;2023-06-14T08:58:40;18.20;99.90
23532;DHT22;11943;52.270;20.978;2023-06-14T09:01:09;18.70;99.90
23532;DHT22;11943;52.270;20.978;2023-06-14T09:03:37;18.80;99.90
23532;DHT22;11943;52.270;20.978;2023-06-14T09:06:06;19.10;99.90
23532;DHT22;11943;52.270;20.978;2023-06-14T09:08:34;19.50;99.90
23532;DHT22;11943;52.270;20.978;2023-06-14T09:11:01;19.00;99.90
23532;DHT22;11943;52.270;20.978;2023-06-14T09:13:28;19.30;99.90
23532;DHT22;11943;52.270;20.978;2023-06-14T09:15:54;19.50;99.90
23532;DHT22;11943;52.270;20.978;2023-06-14T09:18:20;19.30;99.90
23532;DHT22;11943;52.270;20.978;2023-06-14T09:20:46;19.40;99.90
23532;DHT22;11943;52.270;20.978;2023-06-14T09:23:13;19.50;99.90
23532;DHT22;11943;52.270;20.978;2023-06-14T09:25:45;19.50;99.90
23532;DHT22;11943;52.270;20.978;2023-06-14T09:28:11;19.70;99.90
23532;DHT22;11943;52.270;20.978;2023-06-14T09:30:38;19.80;99.90
23532;DHT22;11943;52.270;20.978;2023-06-14T09:33:03;20.00;99.90
23532;DHT22;11943;52.270;20.978;2023-06-14T09:35:31;20.00;99.90
23532;DHT22;11943;52.270;20.978;2023-06-14T09:37:57;20.00;99.90
23532;DHT22;11943;52.270;20.978;2023-06-14T09:40:23;19.70;99.90
23532;DHT22;11943;52.270;20.978;2023-06-14T09:42:49;19.60;99.90
23532;DHT22;11943;52.270;20.978;2023-06-14T09:45:15;19.10;99.90
23532;DHT22;11943;52.270;20.978;2023-06-14T09:47:49;19.00;99.90
23532;DHT22;11943;52.270;20.978;2023-06-14T09:50:14;18.90;99.90
23532;DHT22;11943;52.270;20.978;2023-06-14T09:52:46;18.80;99.90
23532;DHT22;11943;52.270;20.978;2023-06-14T09:55:13;19.10;99.90
23532;DHT22;11943;52.270;20.978;2023-06-14T09:57:42;19.30;99.90
23532;DHT22;11943;52.270;20.978;2023-06-14T10:00:10;19.30;99.90
23532;DHT22;11943;52.270;20.978;2023-06-14T10:02:37;19.40;99.90
23532;DHT22;11943;52.270;20.978;2023-06-14T10:05:08;19.60;99.90
23532;DHT22;11943;52.270;20.978;2023-06-14T10:08:00;19.60;99.90
23532;DHT22;11943;52.270;20.978;2023-06-14T10:10:29;19.80;99.90
23532;DHT22;11943;52.270;20.978;2023-06-14T10:12:56;20.00;99.90
23532;DHT22;11943;52.270;20.978;2023-06-14T10:23:32;20.40;95.30
23532;DHT22;11943;52.270;20.978;2023-06-14T10:25:59;20.60;95.70
23532;DHT22;11943;52.270;20.978;2023-06-14T10:28:26;20.40;94.10
23532;DHT22;11943;52.270;20.978;2023-06-14T10:31:11;20.10;93.90
23532;DHT22;11943;52.270;20.978;2023-06-14T10:33:41;20.30;93.40
23532;DHT22;11943;52.270;20.978;2023-06-14T10:36:29;20.50;92.70
23532;DHT22;11943;52.270;20.978;2023-06-14T10:39:05;20.60;93.10
23532;DHT22;11943;52.270;20.978;2023-06-14T10:41:34;20.60;92.70
23532;DHT22;11943;52.270;20.978;2023-06-14T10:46:53;20.40;92.80
23532;DHT22;11943;52.270;20.978;2023-06-14T10:49:36;20.40;93.50
23532;DHT22;11943;52.270;20.978;2023-06-14T10:52:08;20.40;92.30
23532;DHT22;11943;52.270;20.978;2023-06-14T10:54:37;20.50;91.00
23532;DHT22;11943;52.270;20.978;2023-06-14T10:57:06;20.60;91.90
23532;DHT22;11943;52.270;20.978;2023-06-14T10:59:33;20.90;90.30
23532;DHT22;11943;52.270;20.978;2023-06-14T11:05:14;20.70;87.90
23532;DHT22;11943;52.270;20.978;2023-06-14T11:08:13;20.80;85.60
23532;DHT22;11943;52.270;20.978;2023-06-14T11:10:43;20.50;86.90
23532;DHT22;11943;52.270;20.978;2023-06-14T11:13:09;20.60;89.80
23532;DHT22;11943;52.270;20.978;2023-06-14T11:15:36;20.50;90.00
23532;DHT22;11943;52.270;20.978;2023-06-14T11:18:06;20.60;88.60
23532;DHT22;11943;52.270;20.978;2023-06-14T11:20:34;20.60;88.20
23532;DHT22;11943;52.270;20.978;2023-06-14T11:23:01;20.70;90.00
23532;DHT22;11943;52.270;20.978;2023-06-14T11:25:28;20.60;89.10
23532;DHT22;11943;52.270;20.978;2023-06-14T11:27:54;20.60;86.70
23532;DHT22;11943;52.270;20.978;2023-06-14T11:30:21;20.70;86.10
23532;DHT22;11943;52.270;20.978;2023-06-14T11:32:50;21.00;88.20
23532;DHT22;11943;52.270;20.978;2023-06-14T11:35:17;21.10;85.60
23532;DHT22;11943;52.270;20.978;2023-06-14T11:37:44;21.50;82.20
23532;DHT22;11943;52.270;20.978;2023-06-14T11:40:11;21.80;81.30
23532;DHT22;11943;52.270;20.978;2023-06-14T11:42:39;22.00;79.30
23532;DHT22;11943;52.270;20.978;2023-06-14T11:45:08;22.20;76.40
23532;DHT22;11943;52.270;20.978;2023-06-14T11:47:35;22.20;73.20
23532;DHT22;11943;52.270;20.978;2023-06-14T11:50:05;22.00;73.60
23532;DHT22;11943;52.270;20.978;2023-06-14T11:52:31;21.60;74.20
23532;DHT22;11943;52.270;20.978;2023-06-14T11:54:57;21.50;76.10
23532;DHT22;11943;52.270;20.978;2023-06-14T11:57:24;21.70;77.10
23532;DHT22;11943;52.270;20.978;2023-06-14T11:59:49;21.60;75.50
23532;DHT22;11943;52.270;20.978;2023-06-14T12:02:19;21.30;78.70
23532;DHT22;11943;52.270;20.978;2023-06-14T12:04:47;21.30;73.50
23532;DHT22;11943;52.270;20.978;2023-06-14T12:07:17;21.20;73.80
23532;DHT22;11943;52.270;20.978;2023-06-14T12:12:22;21.20;72.90
23532;DHT22;11943;52.270;20.978;2023-06-14T12:14:51;21.10;73.50
23532;DHT22;11943;52.270;20.978;2023-06-14T12:17:17;21.30;73.40
23532;DHT22;11943;52.270;20.978;2023-06-14T12:19:45;21.40;73.90
23532;DHT22;11943;52.270;20.978;2023-06-14T12:22:11;21.40;71.70
23532;DHT22;11943;52.270;20.978;2023-06-14T12:24:38;21.30;73.50
23532;DHT22;11943;52.270;20.978;2023-06-14T12:27:05;21.20;72.20
23532;DHT22;11943;52.270;20.978;2023-06-14T12:29:31;21.20;71.90
23532;DHT22;11943;52.270;20.978;2023-06-14T12:31:57;21.00;73.00
23532;DHT22;11943;52.270;20.978;2023-06-14T12:34:27;21.00;76.20
23532;DHT22;11943;52.270;20.978;2023-06-14T12:36:53;21.20;75.60
23532;DHT22;11943;52.270;20.978;2023-06-14T12:39:20;21.30;76.20
23532;DHT22;11943;52.270;20.978;2023-06-14T12:41:46;21.40;74.50
23532;DHT22;11943;52.270;20.978;2023-06-14T12:44:12;21.20;76.60
23532;DHT22;11943;52.270;20.978;2023-06-14T12:46:39;21.50;75.90
23532;DHT22;11943;52.270;20.978;2023-06-14T12:49:05;21.60;74.50
23532;DHT22;11943;52.270;20.978;2023-06-14T12:51:32;21.60;76.20
23532;DHT22;11943;52.270;20.978;2023-06-14T12:53:57;21.50;75.90
23532;DHT22;11943;52.270;20.978;2023-06-14T12:56:23;21.50;74.80
23532;DHT22;11943;52.270;20.978;2023-06-14T12:58:49;21.50;73.00
23532;DHT22;11943;52.270;20.978;2023-06-14T13:01:14;21.20;72.30
23532;DHT22;11943;52.270;20.978;2023-06-14T13:03:40;21.10;72.90
23532;DHT22;11943;52.270;20.978;2023-06-14T13:06:06;21.10;71.80
23532;DHT22;11943;52.270;20.978;2023-06-14T13:08:31;21.20;71.60
23532;DHT22;11943;52.270;20.978;2023-06-14T13:10:57;21.50;71.20
23532;DHT22;11943;52.270;20.978;2023-06-14T13:13:23;21.30;68.70
23532;DHT22;11943;52.270;20.978;2023-06-14T13:15:49;21.00;69.90
23532;DHT22;11943;52.270;20.978;2023-06-14T13:18:15;21.00;71.80
23532;DHT22;11943;52.270;20.978;2023-06-14T13:20:41;21.10;70.00
23532;DHT22;11943;52.270;20.978;2023-06-14T13:23:08;21.00;72.80
23532;DHT22;11943;52.270;20.978;2023-06-14T13:25:34;21.00;70.80
23532;DHT22;11943;52.270;20.978;2023-06-14T13:28:00;20.80;71.80
23532;DHT22;11943;52.270;20.978;2023-06-14T13:30:26;20.90;72.70
23532;DHT22;11943;52.270;20.978;2023-06-14T13:32:51;20.90;72.60
23532;DHT22;11943;52.270;20.978;2023-06-14T13:35:18;21.00;74.40
23532;DHT22;11943;52.270;20.978;2023-06-14T13:37:44;21.40;73.40
23532;DHT22;11943;52.270;20.978;2023-06-14T13:40:10;21.50;70.90
23532;DHT22;11943;52.270;20.978;2023-06-14T13:42:36;21.60;72.40
23532;DHT22;11943;52.270;20.978;2023-06-14T13:45:03;21.40;73.20
23532;DHT22;11943;52.270;20.978;2023-06-14T13:47:29;21.10;74.40
23532;DHT22;11943;52.270;20.978;2023-06-14T13:49:55;20.90;75.90
23532;DHT22;11943;52.270;20.978;2023-06-14T13:52:21;20.80;78.10
23532;DHT22;11943;52.270;20.978;2023-06-14T13:54:47;20.80;77.10
23532;DHT22;11943;52.270;20.978;2023-06-14T13:57:12;20.90;76.90
23532;DHT22;11943;52.270;20.978;2023-06-14T13:59:39;20.90;78.70
23532;DHT22;11943;52.270;20.978;2023-06-14T14:02:06;21.10;74.60
23532;DHT22;11943;52.270;20.978;2023-06-14T14:04:31;21.30;75.20
23532;DHT22;11943;52.270;20.978;2023-06-14T14:06:57;20.90;75.00
23532;DHT22;11943;52.270;20.978;2023-06-14T14:09:23;20.60;75.80
23532;DHT22;11943;52.270;20.978;2023-06-14T14:11:49;20.80;76.60
23532;DHT22;11943;52.270;20.978;2023-06-14T14:14:15;20.80;76.40
23532;DHT22;11943;52.270;20.978;2023-06-14T14:16:41;20.70;75.10
23532;DHT22;11943;52.270;20.978;2023-06-14T14:19:07;20.70;73.70
23532;DHT22;11943;52.270;20.978;2023-06-14T14:21:32;20.70;76.50
23532;DHT22;11943;52.270;20.978;2023-06-14T14:23:58;20.40;75.20
23532;DHT22;11943;52.270;20.978;2023-06-14T14:26:24;20.30;77.70
23532;DHT22;11943;52.270;20.978;2023-06-14T14:28:51;20.30;78.70
23532;DHT22;11943;52.270;20.978;2023-06-14T14:31:17;20.50;77.90
23532;DHT22;11943;52.270;20.978;2023-06-14T14:33:42;20.40;78.20
23532;DHT22;11943;52.270;20.978;2023-06-14T14:36:09;20.50;79.80
23532;DHT22;11943;52.270;20.978;2023-06-14T14:38:34;20.50;76.90
23532;DHT22;11943;52.270;20.978;2023-06-14T14:41:00;20.40;80.30
23532;DHT22;11943;52.270;20.978;2023-06-14T14:43:26;20.30;79.00
23532;DHT22;11943;52.270;20.978;2023-06-14T14:45:52;20.20;78.30
23532;DHT22;11943;52.270;20.978;2023-06-14T14:48:18;20.10;79.00
23532;DHT22;11943;52.270;20.978;2023-06-14T14:50:43;20.00;80.30
23532;DHT22;11943;52.270;20.978;2023-06-14T14:53:09;19.80;80.80
23532;DHT22;11943;52.270;20.978;2023-06-14T14:55:35;19.90;82.50
23532;DHT22;11943;52.270;20.978;2023-06-14T14:58:02;20.00;82.90
23532;DHT22;11943;52.270;20.978;2023-06-14T15:00:28;20.00;82.10
23532;DHT22;11943;52.270;20.978;2023-06-14T15:02:54;20.00;83.70
23532;DHT22;11943;52.270;20.978;2023-06-14T15:05:20;19.80;85.50
23532;DHT22;11943;52.270;20.978;2023-06-14T15:07:46;19.90;86.80
23532;DHT22;11943;52.270;20.978;2023-06-14T15:10:12;20.10;85.80
23532;DHT22;11943;52.270;20.978;2023-06-14T15:12:37;20.10;86.50
23532;DHT22;11943;52.270;20.978;2023-06-14T15:15:04;20.00;86.40
23532;DHT22;11943;52.270;20.978;2023-06-14T15:17:30;19.80;86.80
23532;DHT22;11943;52.270;20.978;2023-06-14T15:19:55;19.90;87.00
23532;DHT22;11943;52.270;20.978;2023-06-14T15:22:21;19.60;87.50
23532;DHT22;11943;52.270;20.978;2023-06-14T15:24:47;19.50;88.50
23532;DHT22;11943;52.270;20.978;2023-06-14T15:27:13;19.40;90.50
23532;DHT22;11943;52.270;20.978;2023-06-14T15:29:42;19.30;88.80